Time;durP1;ratioP1;P1;durP2;ratioP2;P2;SDS_P1;SDS_P2;PMS_P1;PMS_P2;Temp;Humidity;BMP_temperature;BMP_pressure;BME280_temperature;BME280_humidity;BME280_pressure;Samples;Min_cycle;Max_cycle;Signal;HPM_P1;HPM_P2
2021/07/26 00:03:17;;;;;;;0.10;0.10;;;;;;;17.60;87.86;100378.38;5033943;28;20048;-82
2021/07/26 00:05:55;;;;;;;0.10;0.10;;;;;;;17.60;88.60;100383.88;5048102;28;20075;-83
2021/07/26 00:08:32;;;;;;;0.10;0.10;;;;;;;17.42;90.53;100387.91;5047076;28;20072;-83
2021/07/26 00:11:01;;;;;;;0.10;0.10;;;;;;;17.59;88.84;100393.28;5033951;28;20053;-82
2021/07/26 00:13:29;;;;;;;0.10;0.10;;;;;;;17.60;89.48;100381.13;5049980;28;20505;-84
2021/07/26 00:16:16;;;;;;;0.10;0.10;;;;;;;17.64;89.40;100384.03;5038131;28;20413;-83
2021/07/26 00:18:49;;;;;;;0.10;0.10;;;;;;;17.66;88.56;100373.47;5034161;28;20057;-84
2021/07/26 00:21:24;;;;;;;0.10;0.10;;;;;;;17.42;88.64;100341.13;5036888;28;20053;-83
2021/07/26 00:24:00;;;;;;;0.10;0.10;;;;;;;17.64;89.12;100384.03;5034261;28;20050;-83
2021/07/26 00:26:29;;;;;;;0.10;0.10;;;;;;;17.66;88.89;100376.22;5036820;28;20045;-84
2021/07/26 00:29:02;;;;;;;0.10;0.10;;;;;;;17.65;88.96;100383.69;5042668;28;20049;-83
2021/07/26 00:31:35;;;;;;;0.10;0.10;;;;;;;17.63;90.18;100382.41;5035114;28;20042;-83
2021/07/26 00:34:25;;;;;;;0.10;0.10;;;;;;;17.64;88.59;100381.28;5041838;28;20057;-83
2021/07/26 00:37:02;;;;;;;0.10;0.10;;;;;;;17.68;89.00;100384.97;5037505;28;20056;-83
2021/07/26 00:39:57;;;;;;;0.10;0.10;;;;;;;17.72;88.71;100383.16;5040704;28;20053;-83
2021/07/26 00:42:25;;;;;;;0.10;0.10;;;;;;;17.65;89.66;100385.66;5054375;28;20064;-83
2021/07/26 00:44:57;;;;;;;0.10;0.10;;;;;;;17.63;88.69;100383.19;5046421;28;20049;-83
2021/07/26 00:47:33;;;;;;;0.10;0.10;;;;;;;17.57;89.33;100378.25;5041638;28;20053;-83
2021/07/26 00:50:01;;;;;;;0.10;0.10;;;;;;;17.59;88.70;100390.50;5043366;28;20413;-82
2021/07/26 00:53:28;;;;;;;0.10;0.10;;;;;;;17.62;88.78;100383.53;5048415;28;20425;-83
2021/07/26 00:56:06;;;;;;;0.20;0.20;;;;;;;17.58;88.61;100382.59;5046819;28;20501;-83
2021/07/26 00:58:39;;;;;;;0.10;0.10;;;;;;;17.54;88.65;100387.16;5052064;28;20514;-83
2021/07/26 01:01:09;;;;;;;0.10;0.10;;;;;;;17.56;88.39;100390.41;5032879;28;20061;-84
2021/07/26 01:03:37;;;;;;;0.10;0.10;;;;;;;17.54;88.91;100396.25;5037638;28;20042;-84
2021/07/26 01:06:12;;;;;;;0.10;0.10;;;;;;;17.56;89.08;100388.44;5048918;28;20056;-82
2021/07/26 01:08:45;;;;;;;0.10;0.10;;;;;;;17.54;88.88;100378.91;5036964;28;20072;-83
2021/07/26 01:11:26;;;;;;;0.13;0.13;;;;;;;17.61;89.11;100381.94;5033598;28;20060;-83
2021/07/26 01:13:59;;;;;;;0.10;0.10;;;;;;;17.53;88.94;100372.59;5045689;28;20136;-84
2021/07/26 01:16:32;;;;;;;0.10;0.10;;;;;;;17.55;89.03;100369.53;5040621;28;20041;-83
2021/07/26 01:19:06;;;;;;;0.00;0.00;;;;;;;17.55;89.15;100375.03;5042780;28;20041;-83
2021/07/26 01:21:35;;;;;;;0.10;0.10;;;;;;;17.52;88.67;100379.25;5042791;28;20528;-83
2021/07/26 01:24:13;;;;;;;0.10;0.10;;;;;;;17.51;88.57;100375.69;5042764;28;20508;-83
2021/07/26 01:26:46;;;;;;;0.10;0.10;;;;;;;17.51;88.73;100380.38;5050485;28;20057;-83
2021/07/26 01:29:14;;;;;;;0.10;0.10;;;;;;;17.47;89.32;100380.25;5034173;28;20147;-83
2021/07/26 01:31:47;;;;;;;0.10;0.10;;;;;;;17.37;90.08;100380.63;5032461;28;20049;-85
2021/07/26 01:34:16;;;;;;;0.10;0.10;;;;;;;17.32;88.67;100376.13;5032766;28;20053;-83
2021/07/26 01:36:50;;;;;;;0.10;0.10;;;;;;;17.36;88.85;100390.03;5047265;28;20058;-84
2021/07/26 01:39:24;;;;;;;0.10;0.10;;;;;;;17.33;88.42;100379.69;5041363;28;20049;-84
2021/07/26 01:41:57;;;;;;;0.10;0.10;;;;;;;17.30;90.00;100386.69;5048058;28;20050;-85
2021/07/26 01:44:30;;;;;;;0.10;0.10;;;;;;;17.27;89.57;100392.03;5033354;28;20053;-83
2021/07/26 01:47:05;;;;;;;0.10;0.10;;;;;;;17.26;89.56;100382.16;5046194;28;20054;-84
2021/07/26 01:49:59;;;;;;;0.10;0.10;;;;;;;17.31;91.00;100384.72;5034428;28;20053;-84
2021/07/26 01:52:30;;;;;;;0.10;0.10;;;;;;;17.32;88.84;100378.88;5031572;28;20049;-83
2021/07/26 01:55:04;;;;;;;0.10;0.10;;;;;;;17.30;89.59;100394.94;5033663;28;20474;-83
2021/07/26 01:58:08;;;;;;;0.10;0.10;;;;;;;17.28;90.76;100396.41;5040551;28;20049;-83
2021/07/26 02:00:41;;;;;;;0.17;0.17;;;;;;;17.30;89.20;100391.34;5034860;28;20423;-82
2021/07/26 02:07:35;;;;;;;0.10;0.10;;;;;;;17.24;90.12;100399.00;5041281;28;20037;-84
2021/07/26 02:10:04;;;;;;;0.20;0.20;;;;;;;17.22;90.55;100393.03;5038961;28;20045;-83
2021/07/26 02:12:58;;;;;;;0.10;0.10;;;;;;;17.09;91.72;100394.84;5045357;28;20065;-84
2021/07/26 02:15:31;;;;;;;0.10;0.10;;;;;;;17.14;91.36;100389.19;5032118;28;20054;-82
2021/07/26 02:18:34;;;;;;;0.10;0.10;;;;;;;17.22;89.38;100392.22;5040057;28;20528;-83
2021/07/26 02:21:07;;;;;;;0.10;0.10;;;;;;;16.96;89.57;100360.97;5039381;28;20045;-84
2021/07/26 02:23:42;;;;;;;0.10;0.10;;;;;;;17.12;89.43;100380.47;5042587;28;20052;-83
2021/07/26 02:26:10;;;;;;;0.10;0.10;;;;;;;17.15;89.07;100378.97;5044639;28;20053;-84
2021/07/26 02:28:43;;;;;;;0.10;0.10;;;;;;;17.13;88.94;100386.78;5041600;28;20045;-84
2021/07/26 02:31:16;;;;;;;0.10;0.10;;;;;;;16.94;90.64;100376.19;5037807;28;20572;-84
2021/07/26 02:33:50;;;;;;;0.10;0.10;;;;;;;17.01;90.86;100379.22;5033552;28;20049;-82
2021/07/26 02:36:22;;;;;;;0.10;0.10;;;;;;;17.00;89.25;100392.16;5051303;28;20063;-83
2021/07/26 02:38:52;;;;;;;0.10;0.10;;;;;;;16.92;89.75;100389.47;5044923;28;20052;-84
2021/07/26 02:41:23;;;;;;;0.10;0.10;;;;;;;16.83;90.50;100390.28;5036255;28;20061;-84
2021/07/26 02:43:56;;;;;;;0.10;0.10;;;;;;;16.77;91.09;100388.81;5032928;28;20050;-83
2021/07/26 02:46:29;;;;;;;0.15;0.15;;;;;;;16.79;91.29;100377.50;5036304;28;20049;-83
2021/07/26 02:49:40;;;;;;;0.10;0.10;;;;;;;16.81;91.87;100378.00;5032322;28;20049;-83
2021/07/26 02:52:14;;;;;;;0.10;0.10;;;;;;;16.91;91.44;100387.84;5030910;28;20512;-83
2021/07/26 02:54:48;;;;;;;0.10;0.10;;;;;;;16.97;92.29;100378.25;5030737;28;20050;-84
2021/07/26 02:57:18;;;;;;;0.10;0.10;;;;;;;17.02;92.31;100382.78;5045160;28;20045;-83
2021/07/26 02:59:52;;;;;;;0.10;0.10;;;;;;;17.08;91.68;100374.03;5049970;28;20060;-84
2021/07/26 03:02:24;;;;;;;0.10;0.10;;;;;;;17.16;91.16;100369.59;5030119;28;20060;-83
2021/07/26 03:04:58;;;;;;;0.10;0.10;;;;;;;17.20;90.99;100370.53;5032294;28;20060;-83
2021/07/26 03:07:27;;;;;;;0.10;0.10;;;;;;;17.21;90.91;100372.16;5032332;28;20041;-83
2021/07/26 03:10:02;;;;;;;0.10;0.10;;;;;;;17.20;90.00;100367.78;5040930;28;21004;-82
2021/07/26 03:12:35;;;;;;;0.15;0.15;;;;;;;17.26;90.01;100379.41;5036546;28;20041;-82
2021/07/26 03:15:09;;;;;;;0.10;0.10;;;;;;;17.25;89.52;100369.53;5050949;28;20490;-83
2021/07/26 03:17:42;;;;;;;0.10;0.10;;;;;;;17.17;89.92;100384.97;5039745;28;20505;-83
2021/07/26 03:20:15;;;;;;;0.10;0.10;;;;;;;17.12;89.68;100385.16;5035932;28;20041;-82
2021/07/26 03:22:53;;;;;;;0.10;0.10;;;;;;;17.03;89.43;100374.19;5039222;28;20060;-83
2021/07/26 03:25:23;;;;;;;0.00;0.00;;;;;;;16.92;89.31;100371.03;5033497;28;20045;-83
2021/07/26 03:31:58;;;;;;;0.10;0.10;;;;;;;16.92;90.45;100393.00;5036094;28;20041;-84
2021/07/26 03:34:26;;;;;;;0.10;0.10;;;;;;;16.88;90.85;100391.22;5031099;28;20052;-83
2021/07/26 03:36:59;;;;;;;0.10;0.10;;;;;;;16.83;91.71;100383.94;5046681;28;20409;-83
2021/07/26 03:39:36;;;;;;;0.20;0.20;;;;;;;16.79;92.12;100380.25;5049483;28;20049;-83
2021/07/26 03:42:11;;;;;;;0.10;0.10;;;;;;;16.91;91.49;100390.59;5036133;28;20042;-83
2021/07/26 03:45:13;;;;;;;0.10;0.10;;;;;;;16.90;91.93;100391.72;5056162;28;20049;-83
2021/07/26 03:47:41;;;;;;;;;;;;;;;17.00;91.58;100399.63;5045665;28;20045;-83
2021/07/26 03:50:15;;;;;;;0.10;0.10;;;;;;;16.98;91.96;100394.41;5049941;28;19921;-83
2021/07/26 03:52:50;;;;;;;0.10;0.10;;;;;;;17.02;91.00;100400.06;5045302;28;20053;-83
2021/07/26 03:55:25;;;;;;;0.10;0.10;;;;;;;17.09;91.08;100405.84;5050194;28;20045;-83
2021/07/26 03:58:09;;;;;;;0.32;0.10;;;;;;;17.12;90.74;100393.41;5045019;28;20049;-83
2021/07/26 04:00:42;;;;;;;0.10;0.10;;;;;;;17.10;90.96;100387.44;5053852;28;20045;-82
2021/07/26 04:03:21;;;;;;;0.10;0.10;;;;;;;17.16;90.86;100395.13;5044880;28;20040;-83
2021/07/26 04:05:52;;;;;;;0.28;0.20;;;;;;;17.17;91.05;100398.72;5037462;28;20052;-83
2021/07/26 04:08:28;;;;;;;0.10;0.10;;;;;;;17.17;91.03;100407.75;5034517;28;20060;-83
2021/07/26 04:11:03;;;;;;;0.10;0.10;;;;;;;17.16;89.99;100397.09;5035738;28;20072;-82
2021/07/26 04:13:39;;;;;;;0.10;0.10;;;;;;;17.27;90.43;100412.06;5034279;28;20041;-82
2021/07/26 04:16:12;;;;;;;0.10;0.10;;;;;;;17.27;89.92;100409.31;5038112;28;20049;-83
2021/07/26 04:18:42;;;;;;;0.10;0.10;;;;;;;17.27;90.65;100420.31;5040061;28;20053;-83
2021/07/26 04:21:10;;;;;;;0.10;0.10;;;;;;;17.21;91.33;100420.84;5038953;28;20041;-84
2021/07/26 04:23:38;;;;;;;0.10;0.10;;;;;;;17.28;91.13;100423.91;5045952;28;20060;-82
2021/07/26 04:26:12;;;;;;;0.10;0.10;;;;;;;17.34;91.66;100425.31;5037501;28;20056;-83
2021/07/26 04:28:46;;;;;;;0.10;0.10;;;;;;;17.37;92.03;100421.09;5043928;28;20050;-84
2021/07/26 04:31:19;;;;;;;0.10;0.10;;;;;;;17.50;91.35;100415.34;5047905;28;20041;-83
2021/07/26 04:34:23;;;;;;;0.10;0.10;;;;;;;17.57;91.97;100414.03;5055136;28;20056;-83
2021/07/26 04:36:56;;;;;;;0.10;0.10;;;;;;;17.60;91.82;100414.16;5038067;28;20041;-84
2021/07/26 04:40:23;;;;;;;0.10;0.10;;;;;;;17.63;90.78;100413.47;5050493;28;20492;-84
2021/07/26 04:42:51;;;;;;;0.10;0.10;;;;;;;17.63;92.02;100407.16;5034798;28;20046;-84
2021/07/26 04:45:26;;;;;;;0.10;0.10;;;;;;;17.61;91.70;100414.97;5034823;28;20379;-83
2021/07/26 04:48:04;;;;;;;0.10;0.10;;;;;;;17.67;91.26;100413.63;5034945;28;20648;-85
2021/07/26 04:50:37;;;;;;;0.10;0.10;;;;;;;17.68;91.00;100410.53;5050351;28;20053;-84
2021/07/26 04:53:10;;;;;;;0.10;0.10;;;;;;;17.75;90.68;100411.97;5053230;28;20056;-84
2021/07/26 04:55:43;;;;;;;0.10;0.10;;;;;;;17.81;90.70;100408.66;5048016;28;20053;-84
2021/07/26 04:58:16;;;;;;;0.10;0.10;;;;;;;17.85;90.89;100414.28;5040419;28;20053;-83
2021/07/26 05:01:43;;;;;;;0.10;0.10;;;;;;;17.90;91.07;100413.28;5049273;28;20449;-85
2021/07/26 05:04:18;;;;;;;0.10;0.10;;;;;;;18.00;91.55;100415.66;5037943;28;20060;-83
2021/07/26 05:06:51;;;;;;;0.17;0.17;;;;;;;18.04;90.96;100396.53;5036844;28;20414;-82
2021/07/26 05:09:24;;;;;;;0.10;0.10;;;;;;;18.09;91.29;100402.66;5050894;28;20041;-83
2021/07/26 05:11:53;;;;;;;0.10;0.10;;;;;;;18.25;90.62;100407.53;5036950;28;20057;-83
2021/07/26 05:14:26;;;;;;;0.10;0.10;;;;;;;18.30;91.04;100415.59;5045783;28;20056;-83
2021/07/26 05:16:59;;;;;;;0.10;0.10;;;;;;;18.47;88.02;100407.13;5037433;28;20383;-83
2021/07/26 05:19:33;;;;;;;0.10;0.10;;;;;;;18.25;89.11;100413.03;5049341;28;20140;-82
2021/07/26 05:22:07;;;;;;;0.10;0.10;;;;;;;18.15;89.01;100401.28;5039890;28;20397;-83
2021/07/26 05:24:40;;;;;;;0.10;0.10;;;;;;;18.21;90.26;100403.84;5037908;28;20046;-83
2021/07/26 05:27:14;;;;;;;0.15;0.15;;;;;;;18.17;89.67;100400.94;5043644;28;20489;-83
2021/07/26 05:29:42;;;;;;;0.10;0.10;;;;;;;18.19;90.73;100399.47;5049297;28;20060;-83
2021/07/26 05:32:22;;;;;;;0.10;0.10;;;;;;;18.19;90.19;100406.94;5047650;28;20056;-84
2021/07/26 05:34:57;;;;;;;0.10;0.10;;;;;;;18.15;89.95;100406.00;5054255;28;20049;-83
2021/07/26 05:37:30;;;;;;;0.10;0.10;;;;;;;18.24;89.89;100414.16;5039655;28;20038;-84
2021/07/26 05:40:04;;;;;;;0.10;0.10;;;;;;;18.26;90.26;100415.44;5032803;28;20128;-84
2021/07/26 05:42:38;;;;;;;0.17;0.17;;;;;;;18.18;90.40;100408.06;5038121;28;20086;-82
2021/07/26 05:45:08;;;;;;;0.10;0.10;;;;;;;18.17;90.88;100411.94;5033299;28;20049;-82
2021/07/26 05:47:41;;;;;;;0.10;0.10;;;;;;;18.28;90.39;100404.88;5034408;28;20040;-84
2021/07/26 05:50:20;;;;;;;0.10;0.10;;;;;;;18.35;90.00;100401.56;5039212;28;20061;-84
2021/07/26 05:53:56;;;;;;;0.10;0.10;;;;;;;18.36;89.66;100409.50;5032891;28;20049;-83
2021/07/26 05:56:24;;;;;;;;;;;;;;;18.43;89.65;100413.66;5044921;28;20422;-83
2021/07/26 06:03:29;;;;;;;0.10;0.10;;;;;;;18.73;89.58;100408.81;5044716;28;20044;-84
2021/07/26 06:05:58;;;;;;;0.10;0.10;;;;;;;18.64;89.04;100392.38;5038133;28;20052;-83
2021/07/26 06:08:32;;;;;;;0.10;0.10;;;;;;;18.84;89.25;100404.44;5046417;28;20045;-84
2021/07/26 06:11:05;;;;;;;0.10;0.10;;;;;;;19.17;88.19;100405.53;5042715;28;20044;-83
2021/07/26 06:13:43;;;;;;;0.25;0.10;;;;;;;19.36;87.65;100405.75;5038416;28;20065;-84
2021/07/26 06:16:18;;;;;;;0.10;0.10;;;;;;;19.64;87.01;100407.00;5042301;28;20042;-83
2021/07/26 06:18:47;;;;;;;0.43;0.10;;;;;;;19.79;86.06;100399.91;5040142;28;20045;-84
2021/07/26 06:21:26;;;;;;;0.10;0.10;;;;;;;19.93;85.72;100403.13;5038359;28;20060;-84
2021/07/26 06:23:54;;;;;;;0.10;0.10;;;;;;;20.01;84.58;100398.59;5050027;28;20049;-83
2021/07/26 06:26:23;;;;;;;0.10;0.10;;;;;;;20.10;84.26;100396.50;5045211;28;20516;-84
2021/07/26 06:28:56;;;;;;;0.10;0.10;;;;;;;20.19;83.66;100396.34;5047725;28;20044;-85
2021/07/26 06:31:34;;;;;;;0.10;0.10;;;;;;;20.60;82.40;100404.56;5031678;28;20045;-85
2021/07/26 06:34:08;;;;;;;0.10;0.10;;;;;;;20.68;80.62;100411.91;5034422;28;20437;-86
2021/07/26 06:36:45;;;;;;;0.10;0.10;;;;;;;20.78;80.62;100405.84;5030191;28;20855;-84
2021/07/26 06:39:44;;;;;;;0.10;0.10;;;;;;;20.72;80.57;100402.53;5029909;28;20061;-86
2021/07/26 06:42:23;;;;;;;0.10;0.10;;;;;;;20.81;81.32;100376.69;5032752;28;20072;-92
2021/07/26 06:44:56;;;;;;;0.10;0.10;;;;;;;20.99;80.62;100402.00;5030249;28;20794;-86
2021/07/26 06:47:24;;;;;;;0.10;0.10;;;;;;;21.04;79.33;100397.00;5029635;28;20058;-86
2021/07/26 06:49:54;;;;;;;0.10;0.10;;;;;;;21.45;79.14;100404.25;5033927;28;20441;-85
2021/07/26 06:52:24;;;;;;;0.10;0.10;;;;;;;21.67;79.51;100408.38;5032378;28;20053;-83
2021/07/26 06:54:53;;;;;;;0.10;0.10;;;;;;;21.56;81.64;100411.69;5033850;28;20053;-84
2021/07/26 06:57:47;;;;;;;0.10;0.10;;;;;;;21.56;79.00;100408.13;5033632;28;20923;-86
2021/07/26 07:00:28;;;;;;;0.10;0.10;;;;;;;21.67;77.90;100403.63;5040450;28;20610;-84
2021/07/26 07:03:01;;;;;;;0.10;0.10;;;;;;;22.22;77.47;100413.81;5032839;28;20439;-86
2021/07/26 07:05:30;;;;;;;0.10;0.10;;;;;;;21.99;76.29;100405.47;5034080;28;20045;-86
2021/07/26 07:08:31;;;;;;;0.10;0.10;;;;;;;21.91;75.18;100418.38;5031241;28;20060;-87
2021/07/26 07:11:15;;;;;;;0.10;0.10;;;;;;;21.71;78.73;100423.88;5030629;28;20123;-84
2021/07/26 07:13:51;;;;;;;0.10;0.10;;;;;;;21.60;78.64;100413.72;5037068;28;20056;-86
2021/07/26 07:16:21;;;;;;;0.10;0.10;;;;;;;21.68;77.09;100421.03;5035214;28;20072;-85
2021/07/26 07:18:55;;;;;;;0.10;0.10;;;;;;;21.65;78.59;100417.00;5035066;28;20049;-85
2021/07/26 07:21:27;;;;;;;0.10;0.10;;;;;;;21.54;77.91;100414.03;5041499;28;20060;-84
2021/07/26 07:24:52;;;;;;;0.17;0.17;;;;;;;21.59;78.29;100417.69;5037447;28;20060;-85
2021/07/26 07:27:27;;;;;;;0.10;0.10;;;;;;;21.57;79.52;100418.84;5034953;28;20482;-84
2021/07/26 07:30:02;;;;;;;0.10;0.10;;;;;;;21.83;80.48;100411.06;5032716;28;20058;-86
2021/07/26 07:32:47;;;;;;;0.10;0.10;;;;;;;22.29;77.91;100414.00;5035619;28;20615;-85
2021/07/26 07:35:45;;;;;;;0.10;0.10;;;;;;;22.31;78.72;100422.72;5042623;28;20084;-87
2021/07/26 07:38:39;;;;;;;0.10;0.10;;;;;;;22.46;76.53;100423.06;5029331;28;20046;-86
2021/07/26 07:41:10;;;;;;;0.10;0.10;;;;;;;22.82;72.75;100399.50;5026008;28;20425;-85
2021/07/26 07:43:47;;;;;;;0.10;0.10;;;;;;;22.86;75.46;100410.69;5029303;28;20079;-84
2021/07/26 07:46:21;;;;;;;0.10;0.10;;;;;;;22.75;74.73;100410.50;5034623;28;20069;-86
2021/07/26 07:48:58;;;;;;;0.10;0.10;;;;;;;22.95;76.12;100419.53;5035583;28;20493;-83
2021/07/26 07:52:28;;;;;;;0.10;0.10;;;;;;;23.12;73.63;100417.44;5036888;28;20068;-84
2021/07/26 07:54:58;;;;;;;0.10;0.10;;;;;;;23.43;70.50;100422.69;5046926;28;20064;-85
2021/07/26 07:57:36;;;;;;;0.10;0.10;;;;;;;23.44;69.63;100417.97;5033239;28;20045;-84
2021/07/26 08:00:17;;;;;;;0.10;0.10;;;;;;;23.34;68.68;100424.97;5028615;28;20068;-85
2021/07/26 08:02:45;;;;;;;0.10;0.10;;;;;;;23.46;69.08;100421.16;5028654;28;20056;-86
2021/07/26 08:05:26;;;;;;;2.28;0.10;;;;;;;23.43;73.16;100422.69;5030594;28;20054;-84
2021/07/26 08:07:59;;;;;;;0.10;0.10;;;;;;;23.36;69.79;100405.94;5032795;28;20429;-84
2021/07/26 08:10:37;;;;;;;0.10;0.10;;;;;;;23.63;73.02;100419.81;5026785;28;20057;-86
2021/07/26 08:13:10;;;;;;;0.10;0.10;;;;;;;23.54;71.41;100414.53;5028241;28;20057;-84
2021/07/26 08:15:51;;;;;;;0.10;0.10;;;;;;;23.67;69.86;100415.13;5030674;28;20060;-87
2021/07/26 08:18:20;;;;;;;0.10;0.10;;;;;;;23.82;67.72;100429.19;5045532;28;20053;-85
2021/07/26 08:20:53;;;;;;;0.10;0.10;;;;;;;23.73;71.71;100426.72;5029005;28;20057;-87
2021/07/26 08:23:26;;;;;;;0.10;0.10;;;;;;;23.69;69.84;100437.75;5025760;28;20048;-86
2021/07/26 08:25:56;;;;;;;0.10;0.10;;;;;;;23.56;71.61;100403.84;5043017;28;20403;-84
2021/07/26 08:28:29;;;;;;;0.10;0.10;;;;;;;23.62;70.29;100418.22;5033448;28;20057;-87
2021/07/26 08:31:07;;;;;;;0.10;0.10;;;;;;;23.46;71.14;100410.03;5026307;28;21301;-86
2021/07/26 08:33:38;;;;;;;0.38;0.20;;;;;;;23.64;70.29;100440.84;5030912;28;20052;-84
2021/07/26 08:36:17;;;;;;;0.10;0.10;;;;;;;23.41;70.20;100438.94;5020666;28;20069;-87
2021/07/26 08:38:50;;;;;;;0.10;0.10;;;;;;;23.34;71.17;100444.41;5022258;28;20061;-87
2021/07/26 08:41:28;;;;;;;0.10;0.10;;;;;;;23.07;70.18;100408.25;5024358;28;20521;-86
2021/07/26 08:43:58;;;;;;;0.10;0.10;;;;;;;23.23;70.18;100426.78;5024508;28;20425;-84
2021/07/26 08:46:31;;;;;;;0.10;0.10;;;;;;;23.36;72.57;100430.13;5032839;28;20055;-86
2021/07/26 08:49:01;;;;;;;0.10;0.10;;;;;;;23.25;73.45;100419.66;5028552;28;20057;-84
2021/07/26 08:51:32;;;;;;;0.20;0.10;;;;;;;23.39;70.74;100430.22;5037607;28;20527;-83
2021/07/26 08:54:04;;;;;;;0.10;0.10;;;;;;;23.32;72.31;100426.50;5024623;28;20052;-85
2021/07/26 08:56:35;;;;;;;0.10;0.10;;;;;;;23.24;73.56;100406.16;5022080;28;20064;-87
2021/07/26 08:59:08;;;;;;;0.10;0.10;;;;;;;23.33;72.47;100436.44;5022669;28;20759;-87
2021/07/26 09:01:47;;;;;;;0.10;0.10;;;;;;;23.33;69.51;100439.22;5021636;28;20065;-84
2021/07/26 09:04:44;;;;;;;0.10;0.10;;;;;;;23.32;66.75;100446.72;5024237;28;20420;-87
2021/07/26 09:07:26;;;;;;;0.10;0.10;;;;;;;23.35;65.42;100442.41;5027236;28;20411;-85
2021/07/26 09:10:12;;;;;;;0.13;0.13;;;;;;;23.35;64.13;100432.13;5020677;28;20063;-85
2021/07/26 09:12:57;;;;;;;0.10;0.10;;;;;;;23.50;65.28;100454.53;5043897;28;20045;-86
2021/07/26 09:16:26;;;;;;;0.17;0.10;;;;;;;23.37;65.08;100448.41;5024705;28;20050;-86
2021/07/26 09:19:48;;;;;;;0.00;0.00;;;;;;;23.14;66.18;100457.56;5021549;28;20065;-87
2021/07/26 09:22:31;;;;;;;0.10;0.10;;;;;;;22.96;68.34;100470.31;5023630;28;20061;-87
2021/07/26 09:25:29;;;;;;;0.10;0.10;;;;;;;22.79;69.07;100474.34;5029273;28;20510;-85
2021/07/26 09:28:10;;;;;;;0.10;0.10;;;;;;;22.58;71.20;100484.69;5021078;28;20056;-85
2021/07/26 09:30:47;;;;;;;0.10;0.10;;;;;;;22.39;71.45;100510.44;5027328;28;20041;-84
2021/07/26 09:33:27;;;;;;;0.10;0.10;;;;;;;22.21;72.33;100539.75;5025146;28;20045;-85
2021/07/26 09:36:12;;;;;;;0.10;0.10;;;;;;;21.71;73.72;100551.28;5028531;28;20735;-87
2021/07/26 09:39:06;;;;;;;0.10;0.10;;;;;;;21.13;74.62;100564.78;5024233;28;20057;-83
2021/07/26 09:41:48;;;;;;;0.10;0.10;;;;;;;20.53;77.29;100558.00;5024655;28;20057;-85
2021/07/26 09:44:22;;;;;;;0.10;0.10;;;;;;;20.16;78.36;100549.84;5032504;28;20053;-85
2021/07/26 09:46:53;;;;;;;0.10;0.10;;;;;;;20.00;78.96;100593.94;5032898;28;20060;-84
2021/07/26 09:49:27;;;;;;;0.10;0.10;;;;;;;19.75;79.46;100584.81;5032128;28;20060;-86
2021/07/26 09:52:09;;;;;;;0.10;0.10;;;;;;;19.61;80.63;100595.38;5035386;28;20535;-84
2021/07/26 09:54:48;;;;;;;0.10;0.10;;;;;;;19.37;82.11;100574.88;5023679;28;20079;-85
2021/07/26 09:57:23;;;;;;;0.10;0.10;;;;;;;19.32;81.28;100595.22;5026018;28;20489;-83
2021/07/26 09:59:59;;;;;;;0.10;0.10;;;;;;;19.25;80.52;100585.88;5025910;28;20052;-85
2021/07/26 10:02:28;;;;;;;0.10;0.10;;;;;;;19.07;80.75;100563.19;5026801;28;20504;-83
2021/07/26 10:04:58;;;;;;;0.10;0.10;;;;;;;18.84;82.75;100583.66;5022194;28;20091;-85
2021/07/26 10:07:40;;;;;;;0.10;0.10;;;;;;;18.50;84.98;100599.31;5017644;28;20060;-83
2021/07/26 10:10:10;;;;;;;;;;;;;;;18.38;85.82;100592.94;5017686;28;20102;-86
2021/07/26 10:12:41;;;;;;;0.10;0.10;;;;;;;18.07;87.30;100575.66;5030575;28;20399;-83
2021/07/26 10:15:19;;;;;;;0.10;0.10;;;;;;;18.06;87.23;100549.25;5035500;28;20053;-82
2021/07/26 10:17:56;;;;;;;0.30;0.20;;;;;;;17.82;91.01;100523.13;5033851;28;20104;-82
2021/07/26 10:20:30;;;;;;;;;;;;;;;17.83;92.33;100526.69;5040515;28;20056;-81
2021/07/26 10:23:29;;;;;;;0.20;0.20;;;;;;;17.70;93.57;100519.47;5045693;28;20396;-82
2021/07/26 10:26:06;;;;;;;0.10;0.10;;;;;;;17.74;94.30;100525.94;5036577;28;20128;-83
2021/07/26 10:28:44;;;;;;;0.10;0.10;;;;;;;17.66;94.96;100522.91;5043975;28;20049;-82
2021/07/26 10:35:35;;;;;;;0.20;0.20;;;;;;;17.37;94.10;100548.41;5053478;28;20620;-83
2021/07/26 10:38:10;;;;;;;0.10;0.10;;;;;;;17.14;95.75;100540.41;5039525;28;20053;-83
2021/07/26 10:40:44;;;;;;;0.10;0.10;;;;;;;17.15;97.29;100550.28;5040973;28;20053;-81
2021/07/26 10:43:53;;;;;;;0.20;0.20;;;;;;;17.21;98.74;100563.84;5030825;28;20057;-84
2021/07/26 10:46:21;;;;;;;0.13;0.13;;;;;;;17.35;100.00;100547.94;5046692;28;20051;-84
2021/07/26 10:48:55;;;;;;;0.10;0.10;;;;;;;17.53;100.00;100543.19;5036214;28;20053;-84
2021/07/26 10:51:38;;;;;;;0.10;0.10;;;;;;;17.78;100.00;100524.94;5038469;28;20525;-85
2021/07/26 10:55:08;;;;;;;0.20;0.20;;;;;;;18.17;100.00;100530.38;5039113;28;20056;-82
2021/07/26 10:57:43;;;;;;;0.10;0.10;;;;;;;18.57;100.00;100518.06;5035244;28;20060;-81
2021/07/26 11:00:48;;;;;;;0.10;0.10;;;;;;;19.15;100.00;100529.19;5034519;28;20053;-82
2021/07/26 11:03:45;;;;;;;0.20;0.20;;;;;;;19.31;98.46;100527.38;5025353;28;20064;-82
2021/07/26 11:07:03;;;;;;;0.10;0.10;;;;;;;19.35;97.25;100527.50;5025153;28;20049;-81
2021/07/26 11:09:46;;;;;;;0.10;0.10;;;;;;;19.52;97.14;100516.25;5030900;28;20049;-82
2021/07/26 11:12:52;;;;;;;0.20;0.20;;;;;;;19.83;97.72;100512.13;5024243;28;20057;-84
2021/07/26 11:15:21;;;;;;;0.15;0.15;;;;;;;20.03;97.54;100501.28;5026977;28;20119;-83
2021/07/26 11:18:30;;;;;;;0.10;0.10;;;;;;;20.04;94.68;100494.59;5023679;28;20050;-82
2021/07/26 11:21:17;;;;;;;0.10;0.10;;;;;;;20.36;96.49;100494.75;5025574;28;20053;-84
2021/07/26 11:23:50;;;;;;;0.15;0.15;;;;;;;20.61;95.83;100491.88;5023380;28;20576;-85
2021/07/26 11:26:26;;;;;;;0.10;0.10;;;;;;;20.74;93.45;100487.91;5025365;28;20063;-84
2021/07/26 11:29:01;;;;;;;0.32;0.17;;;;;;;21.01;92.39;100491.78;5024060;28;20099;-83
2021/07/26 11:31:40;;;;;;;0.10;0.10;;;;;;;20.94;94.16;100454.84;5026077;28;20046;-84
2021/07/26 11:34:17;;;;;;;0.10;0.10;;;;;;;21.30;93.28;100464.03;5024899;28;20512;-82
2021/07/26 11:37:08;;;;;;;0.10;0.10;;;;;;;21.52;91.76;100474.47;5024893;28;20061;-82
2021/07/26 11:39:45;;;;;;;0.10;0.10;;;;;;;21.39;88.47;100473.75;5021698;28;20875;-84
2021/07/26 11:42:20;;;;;;;0.10;0.10;;;;;;;21.37;87.69;100480.81;5022315;28;20629;-83
2021/07/26 11:44:50;;;;;;;0.10;0.10;;;;;;;21.43;89.30;100481.34;5030141;28;20072;-82
2021/07/26 11:47:30;;;;;;;0.10;0.10;;;;;;;21.52;92.35;100473.66;5022514;28;20049;-83
2021/07/26 11:50:40;;;;;;;0.10;0.10;;;;;;;21.60;90.19;100478.22;5018832;28;20426;-83
2021/07/26 11:53:14;;;;;;;0.10;0.10;;;;;;;21.46;86.51;100477.84;5021721;28;20052;-82
2021/07/26 11:55:43;;;;;;;0.10;0.10;;;;;;;21.68;88.66;100473.66;5018409;28;20061;-83
2021/07/26 11:58:26;;;;;;;0.10;0.10;;;;;;;21.72;86.18;100469.00;5023981;28;20064;-81
2021/07/26 12:01:01;;;;;;;0.10;0.10;;;;;;;21.74;84.05;100475.78;5031556;28;20049;-83
2021/07/26 12:03:30;;;;;;;0.10;0.10;;;;;;;21.83;83.97;100477.53;5028325;28;20056;-82
2021/07/26 12:06:04;;;;;;;0.10;0.10;;;;;;;21.99;86.57;100477.50;5031097;28;20425;-82
2021/07/26 12:08:38;;;;;;;0.10;0.10;;;;;;;21.83;86.52;100475.56;5025256;28;20064;-82
2021/07/26 12:12:04;;;;;;;0.10;0.10;;;;;;;21.70;83.02;100482.41;5029378;28;20084;-84
2021/07/26 12:14:32;;;;;;;0.10;0.10;;;;;;;21.82;84.99;100476.75;5034990;28;20053;-82
2021/07/26 12:17:09;;;;;;;0.10;0.10;;;;;;;21.78;82.69;100475.06;5037335;28;21619;-83
2021/07/26 12:20:09;;;;;;;0.10;0.10;;;;;;;21.85;82.89;100480.78;5025641;28;21388;-82
2021/07/26 12:22:44;;;;;;;0.10;0.10;;;;;;;22.13;81.21;100479.78;5019733;28;20049;-86
2021/07/26 12:25:25;;;;;;;0.10;0.10;;;;;;;21.97;74.45;100465.97;5021958;28;20251;-82
2021/07/26 12:28:02;;;;;;;0.10;0.10;;;;;;;22.13;77.18;100461.19;5026457;28;20053;-83
2021/07/26 12:30:38;;;;;;;0.10;0.10;;;;;;;22.22;79.53;100461.78;5029469;28;20072;-83
2021/07/26 12:33:28;;;;;;;0.10;0.10;;;;;;;22.23;80.32;100466.16;5023750;28;20053;-84
2021/07/26 12:36:12;;;;;;;0.08;0.08;;;;;;;22.58;80.78;100447.84;5022032;28;20725;-85
2021/07/26 12:39:18;;;;;;;0.10;0.10;;;;;;;22.83;77.03;100456.63;5024803;28;20061;-85